createdAt,value
2017-01-25T00:00:29.663Z,982.45
2017-01-25T00:00:59.696Z,982.45
2017-01-25T00:01:29.728Z,982.47
2017-01-25T00:01:59.763Z,982.47
2017-01-25T00:02:29.795Z,982.45
2017-01-25T00:02:59.829Z,982.46
2017-01-25T00:03:29.861Z,982.45
2017-01-25T00:03:59.892Z,982.43
2017-01-25T00:04:29.949Z,982.4
2017-01-25T00:04:59.958Z,982.42
2017-01-25T00:05:29.991Z,982.44
2017-01-25T00:06:00.024Z,982.39
2017-01-25T00:06:30.056Z,982.4
2017-01-25T00:07:00.091Z,982.42
2017-01-25T00:07:30.123Z,982.41
2017-01-25T00:08:00.157Z,982.43
2017-01-25T00:08:30.189Z,982.41
2017-01-25T00:09:00.355Z,982.41
2017-01-25T00:09:30.257Z,982.37
2017-01-25T00:10:00.489Z,982.4
2017-01-25T00:10:30.319Z,982.36
2017-01-25T00:11:00.352Z,982.4
2017-01-25T00:11:30.385Z,982.34
2017-01-25T00:12:00.418Z,982.39
2017-01-25T00:12:30.450Z,982.33
2017-01-25T00:13:00.483Z,982.36
2017-01-25T00:13:30.516Z,982.36
2017-01-25T00:14:00.551Z,982.36
2017-01-25T00:14:30.580Z,982.33
2017-01-25T00:15:00.613Z,982.38
2017-01-25T00:15:30.647Z,982.35
2017-01-25T00:16:00.682Z,982.38
2017-01-25T00:16:30.714Z,982.35
2017-01-25T00:17:00.746Z,982.36
2017-01-25T00:17:30.777Z,982.36
2017-01-25T00:18:00.810Z,982.37
2017-01-25T00:18:30.845Z,982.38
2017-01-25T00:19:00.880Z,982.38
2017-01-25T00:19:30.908Z,982.39
2017-01-25T00:20:00.940Z,982.37
2017-01-25T00:20:30.975Z,982.35
2017-01-25T00:21:01.007Z,982.37
2017-01-25T00:21:31.039Z,982.4
2017-01-25T00:22:01.073Z,982.42
2017-01-25T00:22:31.106Z,982.42
2017-01-25T00:23:01.138Z,982.41
2017-01-25T00:23:31.169Z,982.43
2017-01-25T00:24:01.202Z,982.42
2017-01-25T00:24:31.236Z,982.42
2017-01-25T00:25:01.268Z,982.38
2017-01-25T00:25:31.302Z,982.41
2017-01-25T00:26:01.336Z,982.43
2017-01-25T00:26:31.368Z,982.42
2017-01-25T00:27:01.400Z,982.41
2017-01-25T00:27:31.432Z,982.39
2017-01-25T00:28:01.466Z,982.35
2017-01-25T00:28:31.497Z,982.37
2017-01-25T00:29:01.532Z,982.36
2017-01-25T00:29:31.565Z,982.36
2017-01-25T00:30:01.597Z,982.37
2017-01-25T00:30:31.629Z,982.4
2017-01-25T00:31:01.662Z,982.36
2017-01-25T00:31:31.701Z,982.39
2017-01-25T00:32:01.729Z,982.39
2017-01-25T00:32:31.764Z,982.41
2017-01-25T00:33:01.797Z,982.41
2017-01-25T00:33:31.826Z,982.41
2017-01-25T00:34:01.860Z,982.43
2017-01-25T00:34:31.892Z,982.42
2017-01-25T00:35:01.924Z,982.41
2017-01-25T00:35:31.956Z,982.42
2017-01-25T00:36:01.990Z,982.39
2017-01-25T00:36:32.023Z,982.4
2017-01-25T00:37:02.059Z,982.38
2017-01-25T00:37:32.087Z,982.41
2017-01-25T00:38:02.121Z,982.4
2017-01-25T00:38:32.153Z,982.41
2017-01-25T00:39:02.187Z,982.39
2017-01-25T00:39:32.219Z,982.35
2017-01-25T00:40:02.253Z,982.36
2017-01-25T00:40:32.285Z,982.32
2017-01-25T00:41:02.317Z,982.31
2017-01-25T00:41:32.350Z,982.3
2017-01-25T00:42:02.382Z,982.28
2017-01-25T00:42:32.417Z,982.3
2017-01-25T00:43:02.448Z,982.29
2017-01-25T00:43:32.485Z,982.29
2017-01-25T00:44:02.512Z,982.27
2017-01-25T00:44:32.545Z,982.27
2017-01-25T00:45:02.581Z,982.28
2017-01-25T00:45:32.611Z,982.25
2017-01-25T00:46:02.646Z,982.32
2017-01-25T00:46:32.677Z,982.3
2017-01-25T00:47:02.709Z,982.27
2017-01-25T00:47:32.742Z,982.31
2017-01-25T00:48:02.774Z,982.31
2017-01-25T00:48:32.808Z,982.32
2017-01-25T00:49:02.841Z,982.33
2017-01-25T00:49:32.872Z,982.33
2017-01-25T00:50:02.905Z,982.35
2017-01-25T00:50:32.937Z,982.35
2017-01-25T00:51:02.970Z,982.3
2017-01-25T00:51:33.003Z,982.29
2017-01-25T00:52:03.037Z,982.3
2017-01-25T00:52:33.070Z,982.26
2017-01-25T00:53:03.101Z,982.29
2017-01-25T00:53:33.153Z,982.29
2017-01-25T00:54:03.168Z,982.27
2017-01-25T00:54:33.200Z,982.26
2017-01-25T00:55:03.233Z,982.29
2017-01-25T00:55:33.265Z,982.26
2017-01-25T00:56:03.298Z,982.2
2017-01-25T00:56:33.331Z,982.24
2017-01-25T00:57:03.362Z,982.24
2017-01-25T00:57:33.397Z,982.26
2017-01-25T00:58:03.428Z,982.26
2017-01-25T00:58:33.461Z,982.32
2017-01-25T00:59:03.494Z,982.32
2017-01-25T00:59:33.528Z,982.33
2017-01-25T01:00:03.560Z,982.33
2017-01-25T01:00:33.593Z,982.34
2017-01-25T01:01:03.624Z,982.37
2017-01-25T01:01:33.658Z,982.34
2017-01-25T01:02:03.691Z,982.34
2017-01-25T01:02:33.723Z,982.32
2017-01-25T01:03:03.755Z,982.34
2017-01-25T01:03:33.789Z,982.3
2017-01-25T01:04:03.821Z,982.31
2017-01-25T01:04:33.853Z,982.32
2017-01-25T01:05:03.885Z,982.29
2017-01-25T01:05:33.920Z,982.32
2017-01-25T01:06:03.952Z,982.32
2017-01-25T01:06:33.985Z,982.35
2017-01-25T01:07:04.017Z,982.31
2017-01-25T01:07:34.049Z,982.29
2017-01-25T01:08:04.080Z,982.3
2017-01-25T01:08:34.115Z,982.28
2017-01-25T01:09:04.148Z,982.28
2017-01-25T01:09:34.181Z,982.3
2017-01-25T01:10:04.213Z,982.28
2017-01-25T01:10:34.243Z,982.25
2017-01-25T01:11:04.278Z,982.25
2017-01-25T01:11:34.312Z,982.25
2017-01-25T01:12:04.344Z,982.23
2017-01-25T01:12:34.377Z,982.28
2017-01-25T01:13:04.409Z,982.27
2017-01-25T01:13:34.444Z,982.28
2017-01-25T01:14:04.473Z,982.29
2017-01-25T01:14:34.508Z,982.27
2017-01-25T01:15:04.541Z,982.27
2017-01-25T01:15:34.574Z,982.31
2017-01-25T01:16:04.605Z,982.3
2017-01-25T01:16:34.638Z,982.29
2017-01-25T01:17:04.671Z,982.32
2017-01-25T01:17:34.705Z,982.35
2017-01-25T01:18:04.736Z,982.34
2017-01-25T01:18:34.769Z,982.35
2017-01-25T01:19:04.807Z,982.35
2017-01-25T01:19:34.836Z,982.36
2017-01-25T01:20:04.872Z,982.35
2017-01-25T01:20:34.901Z,982.33
2017-01-25T01:21:04.935Z,982.33
2017-01-25T01:21:34.966Z,982.31
2017-01-25T01:22:04.999Z,982.38
2017-01-25T01:22:35.032Z,982.37
2017-01-25T01:23:05.065Z,982.38
2017-01-25T01:23:35.097Z,982.35
2017-01-25T01:24:05.129Z,982.37
2017-01-25T01:24:35.162Z,982.31
2017-01-25T01:25:05.198Z,982.34
2017-01-25T01:25:35.227Z,982.34
2017-01-25T01:26:05.260Z,982.35
2017-01-25T01:26:35.295Z,982.32
2017-01-25T01:27:05.328Z,982.34
2017-01-25T01:27:35.358Z,982.33
2017-01-25T01:28:05.391Z,982.34
2017-01-25T01:28:35.424Z,982.35
2017-01-25T01:29:05.458Z,982.35
2017-01-25T01:29:35.490Z,982.31
2017-01-25T01:30:05.523Z,982.32
2017-01-25T01:30:35.554Z,982.35
2017-01-25T01:31:05.587Z,982.32
2017-01-25T01:31:35.621Z,982.31
2017-01-25T01:32:05.653Z,982.29
2017-01-25T01:32:35.687Z,982.33
2017-01-25T01:33:05.744Z,982.37
2017-01-25T01:33:35.752Z,982.36
2017-01-25T01:34:05.786Z,982.37
2017-01-25T01:34:35.820Z,982.36
2017-01-25T01:35:05.849Z,982.36
2017-01-25T01:35:35.882Z,982.39
2017-01-25T01:36:05.914Z,982.39
2017-01-25T01:36:35.948Z,982.42
2017-01-25T01:37:05.982Z,982.42
2017-01-25T01:37:36.012Z,982.43
2017-01-25T01:38:06.046Z,982.41
2017-01-25T01:38:36.077Z,982.44
2017-01-25T01:39:06.111Z,982.43
2017-01-25T01:39:36.143Z,982.45
2017-01-25T01:40:06.176Z,982.43
2017-01-25T01:40:36.212Z,982.46
2017-01-25T01:41:06.242Z,982.46
2017-01-25T01:41:36.275Z,982.44
2017-01-25T01:42:06.308Z,982.45
2017-01-25T01:42:36.344Z,982.4
2017-01-25T01:43:06.452Z,982.42
2017-01-25T01:43:36.407Z,982.42
2017-01-25T01:44:06.440Z,982.43
2017-01-25T01:44:36.472Z,982.43
2017-01-25T01:45:06.504Z,982.43
2017-01-25T01:45:36.536Z,982.48
2017-01-25T01:46:06.570Z,982.47
2017-01-25T01:46:36.603Z,982.46
2017-01-25T01:47:06.635Z,982.44
2017-01-25T01:47:36.667Z,982.45
2017-01-25T01:48:06.701Z,982.45
2017-01-25T01:48:36.732Z,982.46
2017-01-25T01:49:06.767Z,982.49
2017-01-25T01:49:36.798Z,982.5
2017-01-25T01:50:06.836Z,982.46
2017-01-25T01:50:36.864Z,982.49
2017-01-25T01:51:06.895Z,982.47
2017-01-25T01:51:36.930Z,982.49
2017-01-25T01:52:06.968Z,982.51
2017-01-25T01:52:36.995Z,982.47
2017-01-25T01:53:07.028Z,982.48
2017-01-25T01:53:37.060Z,982.47
2017-01-25T01:54:07.092Z,982.48
2017-01-25T01:54:37.125Z,982.52
2017-01-25T01:55:07.158Z,982.52
2017-01-25T01:55:37.190Z,982.5
2017-01-25T01:56:07.223Z,982.47
2017-01-25T01:56:37.257Z,982.48
2017-01-25T01:57:07.289Z,982.45
2017-01-25T01:57:37.320Z,982.44
2017-01-25T01:58:07.354Z,982.47
2017-01-25T01:58:37.389Z,982.43
2017-01-25T01:59:07.420Z,982.44
2017-01-25T01:59:37.452Z,982.42
2017-01-25T02:00:07.485Z,982.4
2017-01-25T02:00:37.518Z,982.44
2017-01-25T02:01:07.577Z,982.44
2017-01-25T02:01:37.583Z,982.4
2017-01-25T02:02:07.616Z,982.43
2017-01-25T02:02:37.648Z,982.42
2017-01-25T02:03:07.680Z,982.4
2017-01-25T02:03:37.715Z,982.41
2017-01-25T02:04:07.748Z,982.4
2017-01-25T02:04:37.780Z,982.4
2017-01-25T02:05:07.812Z,982.38
2017-01-25T02:05:37.846Z,982.36
2017-01-25T02:06:07.879Z,982.37
2017-01-25T02:06:37.910Z,982.38
2017-01-25T02:07:07.951Z,982.36
2017-01-25T02:07:37.975Z,982.38
2017-01-25T02:08:08.009Z,982.37
2017-01-25T02:08:38.043Z,982.39
2017-01-25T02:09:08.075Z,982.38
2017-01-25T02:09:38.107Z,982.37
2017-01-25T02:10:08.140Z,982.39
2017-01-25T02:10:38.172Z,982.39
2017-01-25T02:11:08.204Z,982.35
2017-01-25T02:11:38.238Z,982.33
2017-01-25T02:12:08.292Z,982.31
2017-01-25T02:12:38.304Z,982.32
2017-01-25T02:13:08.337Z,982.28
2017-01-25T02:13:38.369Z,982.29
2017-01-25T02:14:08.402Z,982.28
2017-01-25T02:14:38.434Z,982.25
2017-01-25T02:15:08.467Z,982.26
2017-01-25T02:15:38.499Z,982.26
2017-01-25T02:16:08.533Z,982.28
2017-01-25T02:16:38.565Z,982.28
2017-01-25T02:17:08.598Z,982.31
2017-01-25T02:17:38.631Z,982.29
2017-01-25T02:18:08.663Z,982.27
2017-01-25T02:18:38.696Z,982.26
2017-01-25T02:19:08.729Z,982.26
2017-01-25T02:19:38.762Z,982.26
2017-01-25T02:20:08.795Z,982.27
2017-01-25T02:20:38.838Z,982.26
2017-01-25T02:21:09.089Z,982.28
2017-01-25T02:21:38.892Z,982.24
2017-01-25T02:22:08.930Z,982.28
2017-01-25T02:22:38.967Z,982.28
2017-01-25T02:23:08.997Z,982.3
2017-01-25T02:23:39.101Z,982.33
2017-01-25T02:24:09.057Z,982.29
2017-01-25T02:24:39.089Z,982.31
2017-01-25T02:25:09.229Z,982.3
2017-01-25T02:25:39.156Z,982.3
2017-01-25T02:26:09.192Z,982.25
2017-01-25T02:26:39.223Z,982.27
2017-01-25T02:27:09.265Z,982.24
2017-01-25T02:27:39.287Z,982.25
2017-01-25T02:28:09.320Z,982.27
2017-01-25T02:28:39.367Z,982.26
2017-01-25T02:29:09.394Z,982.28
2017-01-25T02:29:39.517Z,982.25
2017-01-25T02:30:28.777Z,982.26
2017-01-25T02:30:39.500Z,982.24
2017-01-25T02:31:09.516Z,982.27
2017-01-25T02:31:39.547Z,982.23
2017-01-25T02:32:09.585Z,982.25
2017-01-25T02:32:39.614Z,982.22
2017-01-25T02:33:09.655Z,982.23
2017-01-25T02:33:39.694Z,982.23
2017-01-25T02:34:09.713Z,982.23
2017-01-25T02:34:39.751Z,982.25
2017-01-25T02:35:09.788Z,982.22
2017-01-25T02:35:39.813Z,982.26
2017-01-25T02:36:09.870Z,982.26
2017-01-25T02:36:39.894Z,982.28
2017-01-25T02:37:09.976Z,982.27
2017-01-25T02:37:39.959Z,982.28
2017-01-25T02:38:09.976Z,982.3
2017-01-25T02:38:40.008Z,982.3
2017-01-25T02:39:10.041Z,982.28
2017-01-25T02:39:40.076Z,982.28
2017-01-25T02:40:10.156Z,982.31
2017-01-25T02:40:40.140Z,982.3
2017-01-25T02:41:10.171Z,982.29
2017-01-25T02:41:40.203Z,982.27
2017-01-25T02:42:10.237Z,982.28
2017-01-25T02:42:40.272Z,982.31
2017-01-25T02:43:10.302Z,982.29
2017-01-25T02:43:40.335Z,982.27
2017-01-25T02:44:10.368Z,982.29
2017-01-25T02:44:40.400Z,982.27
2017-01-25T02:45:10.433Z,982.3
2017-01-25T02:45:40.468Z,982.27
2017-01-25T02:46:10.534Z,982.31
2017-01-25T02:46:40.551Z,982.3
2017-01-25T02:47:10.566Z,982.31
2017-01-25T02:47:40.602Z,982.29
2017-01-25T02:48:10.631Z,982.29
2017-01-25T02:48:40.664Z,982.32
2017-01-25T02:49:10.736Z,982.29
2017-01-25T02:49:40.743Z,982.27
2017-01-25T02:50:10.762Z,982.26
2017-01-25T02:50:40.795Z,982.28
2017-01-25T02:51:10.828Z,982.26
2017-01-25T02:51:40.863Z,982.26
2017-01-25T02:52:10.892Z,982.29
2017-01-25T02:52:40.928Z,982.28
2017-01-25T02:53:10.958Z,982.32
2017-01-25T02:53:40.992Z,982.28
2017-01-25T02:54:11.034Z,982.3
2017-01-25T02:54:41.056Z,982.27
2017-01-25T02:55:11.099Z,982.33
2017-01-25T02:55:41.123Z,982.33
2017-01-25T02:56:11.181Z,982.35
2017-01-25T02:56:41.188Z,982.3
2017-01-25T02:57:11.222Z,982.28
2017-01-25T02:57:41.297Z,982.27
2017-01-25T02:58:11.286Z,982.28
2017-01-25T02:58:41.319Z,982.28
2017-01-25T02:59:11.351Z,982.28
2017-01-25T02:59:41.391Z,982.27
2017-01-25T03:00:11.418Z,982.26
2017-01-25T03:00:41.449Z,982.27
2017-01-25T03:01:11.483Z,982.26
2017-01-25T03:01:41.545Z,982.26
2017-01-25T03:02:11.555Z,982.23
2017-01-25T03:02:41.580Z,982.26
2017-01-25T03:03:11.612Z,982.25
2017-01-25T03:03:41.647Z,982.29
2017-01-25T03:04:11.686Z,982.27
2017-01-25T03:04:41.710Z,982.31
2017-01-25T03:05:11.742Z,982.31
2017-01-25T03:05:41.939Z,982.31
2017-01-25T03:06:11.810Z,982.31
2017-01-25T03:06:41.841Z,982.32
2017-01-25T03:07:11.873Z,982.35
2017-01-25T03:07:41.905Z,982.36
2017-01-25T03:08:11.938Z,982.32
2017-01-25T03:08:41.972Z,982.31
2017-01-25T03:09:12.184Z,982.34
2017-01-25T03:09:42.036Z,982.34
2017-01-25T03:10:12.168Z,982.33
2017-01-25T03:10:42.205Z,982.34
2017-01-25T03:11:12.134Z,982.36
2017-01-25T03:11:42.166Z,982.35
2017-01-25T03:12:12.200Z,982.37
2017-01-25T03:12:42.233Z,982.37
2017-01-25T03:13:12.265Z,982.39
2017-01-25T03:13:42.309Z,982.4
2017-01-25T03:14:12.348Z,982.4
2017-01-25T03:14:42.363Z,982.44
2017-01-25T03:15:12.396Z,982.42
2017-01-25T03:15:42.429Z,982.44
2017-01-25T03:16:12.612Z,982.42
2017-01-25T03:16:42.516Z,982.39
2017-01-25T03:17:12.527Z,982.38
2017-01-25T03:17:42.562Z,982.4
2017-01-25T03:18:12.594Z,982.43
2017-01-25T03:18:42.626Z,982.4
2017-01-25T03:19:12.664Z,982.42
2017-01-25T03:19:42.707Z,982.38
2017-01-25T03:20:12.723Z,982.41
2017-01-25T03:20:42.759Z,982.39
2017-01-25T03:21:12.808Z,982.38
2017-01-25T03:21:42.821Z,982.43
2017-01-25T03:22:12.854Z,982.41
2017-01-25T03:22:42.892Z,982.38
2017-01-25T03:23:13.068Z,982.4
2017-01-25T03:23:43.071Z,982.4
2017-01-25T03:24:12.999Z,982.39
2017-01-25T03:24:43.022Z,982.39
2017-01-25T03:25:13.048Z,982.35
2017-01-25T03:25:43.082Z,982.38
2017-01-25T03:26:13.115Z,982.31
2017-01-25T03:26:43.147Z,982.35
2017-01-25T03:27:13.181Z,982.35
2017-01-25T03:27:43.234Z,982.3
2017-01-25T03:28:13.244Z,982.31
2017-01-25T03:28:43.278Z,982.28
2017-01-25T03:29:13.330Z,982.28
2017-01-25T03:29:43.355Z,982.29
2017-01-25T03:30:13.385Z,982.26
2017-01-25T03:30:43.412Z,982.24
2017-01-25T03:31:13.441Z,982.27
2017-01-25T03:31:43.475Z,982.27
2017-01-25T03:33:13.572Z,982.24
2017-01-25T03:33:43.605Z,982.26
2017-01-25T03:34:13.785Z,982.25
2017-01-25T03:34:43.719Z,982.28
2017-01-25T03:35:14.048Z,982.28
2017-01-25T03:35:43.735Z,982.26
2017-01-25T03:36:13.797Z,982.27
2017-01-25T03:36:45.977Z,982.27
2017-01-25T03:37:13.833Z,982.26
2017-01-25T03:37:43.867Z,982.24
2017-01-25T03:38:13.900Z,982.28
2017-01-25T03:38:43.932Z,982.29
2017-01-25T03:39:13.964Z,982.26
2017-01-25T03:39:44.000Z,982.25
2017-01-25T03:40:14.030Z,982.25
2017-01-25T03:40:44.063Z,982.28
2017-01-25T03:41:14.096Z,982.26
2017-01-25T03:41:44.128Z,982.28
2017-01-25T03:42:14.163Z,982.24
2017-01-25T03:42:44.194Z,982.25
2017-01-25T03:43:14.227Z,982.24
2017-01-25T03:43:44.259Z,982.23
2017-01-25T03:44:14.293Z,982.25
2017-01-25T03:44:44.326Z,982.26
2017-01-25T03:45:14.359Z,982.21
2017-01-25T03:45:44.390Z,982.24
2017-01-25T03:46:14.422Z,982.22
2017-01-25T03:46:44.477Z,982.21
2017-01-25T03:47:14.488Z,982.22
2017-01-25T03:47:44.522Z,982.24
2017-01-25T03:48:14.554Z,982.23
2017-01-25T03:48:44.585Z,982.21
2017-01-25T03:49:14.618Z,982.2
2017-01-25T03:49:44.651Z,982.22
2017-01-25T03:50:14.684Z,982.25
2017-01-25T03:50:44.717Z,982.22
2017-01-25T03:51:14.750Z,982.21
2017-01-25T03:51:44.782Z,982.26
2017-01-25T03:52:14.814Z,982.23
2017-01-25T03:52:44.847Z,982.24
2017-01-25T03:53:14.883Z,982.24
2017-01-25T03:53:44.913Z,982.25
2017-01-25T03:54:14.946Z,982.26
2017-01-25T03:54:44.978Z,982.27
2017-01-25T03:55:15.011Z,982.27
2017-01-25T03:55:45.042Z,982.3
2017-01-25T03:56:15.077Z,982.27
2017-01-25T03:56:45.109Z,982.29
2017-01-25T03:57:15.142Z,982.28
2017-01-25T03:57:45.175Z,982.3
2017-01-25T03:58:15.207Z,982.25
2017-01-25T03:58:45.239Z,982.26
2017-01-25T03:59:15.287Z,982.24
2017-01-25T03:59:45.304Z,982.3
2017-01-25T04:00:15.339Z,982.25
2017-01-25T04:00:45.373Z,982.29
2017-01-25T04:01:15.404Z,982.28
2017-01-25T04:01:45.436Z,982.29
2017-01-25T04:02:15.468Z,982.28
2017-01-25T04:02:45.501Z,982.3
2017-01-25T04:03:15.535Z,982.28
2017-01-25T04:03:45.568Z,982.29
2017-01-25T04:04:15.600Z,982.28
2017-01-25T04:04:45.633Z,982.29
2017-01-25T04:05:15.663Z,982.3
2017-01-25T04:05:45.700Z,982.27
2017-01-25T04:06:15.731Z,982.29
2017-01-25T04:06:45.788Z,982.29
2017-01-25T04:07:15.795Z,982.27
2017-01-25T04:07:45.829Z,982.3
2017-01-25T04:08:15.862Z,982.33
2017-01-25T04:08:45.893Z,982.27
2017-01-25T04:09:15.926Z,982.27
2017-01-25T04:09:45.959Z,982.32
2017-01-25T04:10:15.992Z,982.29
2017-01-25T04:10:46.024Z,982.33
2017-01-25T04:11:16.057Z,982.29
2017-01-25T04:11:46.090Z,982.34
2017-01-25T04:12:16.121Z,982.33
2017-01-25T04:12:46.156Z,982.32
2017-01-25T04:13:16.188Z,982.31
2017-01-25T04:13:46.220Z,982.3
2017-01-25T04:14:16.253Z,982.28
2017-01-25T04:14:46.285Z,982.29
2017-01-25T04:15:16.318Z,982.31
2017-01-25T04:15:46.355Z,982.27
2017-01-25T04:16:16.384Z,982.27
2017-01-25T04:16:46.416Z,982.25
2017-01-25T04:17:16.448Z,982.26
2017-01-25T04:17:46.482Z,982.27
2017-01-25T04:18:16.518Z,982.26
2017-01-25T04:18:46.546Z,982.27
2017-01-25T04:19:16.578Z,982.26
2017-01-25T04:19:46.611Z,982.29
2017-01-25T04:20:16.646Z,982.3
2017-01-25T04:20:46.677Z,982.3
2017-01-25T04:21:16.715Z,982.3
2017-01-25T04:21:46.742Z,982.31
2017-01-25T04:22:16.774Z,982.29
2017-01-25T04:22:46.807Z,982.28
2017-01-25T04:23:16.841Z,982.3
2017-01-25T04:23:46.873Z,982.27
2017-01-25T04:24:16.906Z,982.26
2017-01-25T04:24:46.938Z,982.26
2017-01-25T04:25:16.972Z,982.24
2017-01-25T04:25:47.003Z,982.24
2017-01-25T04:26:17.036Z,982.19
2017-01-25T04:26:47.076Z,982.23
2017-01-25T04:27:17.102Z,982.2
2017-01-25T04:27:47.136Z,982.23
2017-01-25T04:28:17.168Z,982.22
2017-01-25T04:28:47.200Z,982.24
2017-01-25T04:29:17.232Z,982.22
2017-01-25T04:29:47.265Z,982.26
2017-01-25T04:30:17.298Z,982.2
2017-01-25T04:30:47.330Z,982.25
2017-01-25T04:31:17.364Z,982.28
2017-01-25T04:31:47.395Z,982.29
2017-01-25T04:32:17.429Z,982.29
2017-01-25T04:32:47.460Z,982.34
2017-01-25T04:33:17.492Z,982.32
2017-01-25T04:33:47.527Z,982.32
2017-01-25T04:34:17.559Z,982.35
2017-01-25T04:34:47.592Z,982.31
2017-01-25T04:35:17.627Z,982.35
2017-01-25T04:35:47.656Z,982.3
2017-01-25T04:36:17.689Z,982.28
2017-01-25T04:36:47.724Z,982.26
2017-01-25T04:37:17.755Z,982.26
2017-01-25T04:37:47.786Z,982.28
2017-01-25T04:38:17.819Z,982.27
2017-01-25T04:38:47.849Z,982.27
2017-01-25T04:39:17.898Z,982.28
2017-01-25T04:39:47.915Z,982.26
2017-01-25T04:40:17.947Z,982.29
2017-01-25T04:40:47.980Z,982.29
2017-01-25T04:41:18.012Z,982.28
2017-01-25T04:41:48.045Z,982.28
2017-01-25T04:42:18.075Z,982.25
2017-01-25T04:42:48.108Z,982.28
2017-01-25T04:43:18.140Z,982.27
2017-01-25T04:43:48.173Z,982.27
2017-01-25T04:44:18.205Z,982.26
2017-01-25T04:44:48.238Z,982.24
2017-01-25T04:45:18.271Z,982.24
2017-01-25T04:45:48.302Z,982.24
2017-01-25T04:46:18.335Z,982.24
2017-01-25T04:46:48.367Z,982.25
2017-01-25T04:47:18.400Z,982.25
2017-01-25T04:47:48.432Z,982.24
2017-01-25T04:48:18.473Z,982.23
2017-01-25T04:48:48.495Z,982.25
2017-01-25T04:49:18.528Z,982.23
2017-01-25T04:49:48.562Z,982.23
2017-01-25T04:50:18.593Z,982.24
2017-01-25T04:50:48.626Z,982.22
2017-01-25T04:51:18.659Z,982.24
2017-01-25T04:51:48.690Z,982.25
2017-01-25T04:52:18.721Z,982.2
2017-01-25T04:52:48.758Z,982.25
2017-01-25T04:53:18.786Z,982.24
2017-01-25T04:53:48.831Z,982.21
2017-01-25T04:54:18.851Z,982.27
2017-01-25T04:54:48.893Z,982.26
2017-01-25T04:55:18.918Z,982.24
2017-01-25T04:55:48.949Z,982.25
2017-01-25T04:56:18.980Z,982.22
2017-01-25T04:56:49.014Z,982.24
2017-01-25T04:57:19.072Z,982.22
2017-01-25T04:57:49.078Z,982.23
2017-01-25T04:58:19.110Z,982.24
2017-01-25T04:58:49.143Z,982.26
2017-01-25T04:59:19.175Z,982.26
2017-01-25T04:59:49.207Z,982.24
2017-01-25T05:00:19.240Z,982.24
2017-01-25T05:00:49.272Z,982.26
2017-01-25T05:01:19.303Z,982.25
2017-01-25T05:01:49.335Z,982.23
2017-01-25T05:02:19.368Z,982.22
2017-01-25T05:02:49.400Z,982.24
2017-01-25T05:03:19.433Z,982.2
2017-01-25T05:03:49.464Z,982.24
2017-01-25T05:04:19.499Z,982.19
2017-01-25T05:04:49.530Z,982.2
2017-01-25T05:05:24.641Z,982.2
2017-01-25T05:05:54.676Z,982.22
2017-01-25T05:06:24.707Z,982.2
2017-01-25T05:06:54.736Z,982.24
2017-01-25T05:07:24.773Z,982.26
2017-01-25T05:07:54.804Z,982.24
2017-01-25T05:08:24.835Z,982.24
2017-01-25T05:08:54.869Z,982.23
2017-01-25T05:09:24.899Z,982.26
2017-01-25T05:09:54.931Z,982.26
2017-01-25T05:10:24.965Z,982.26
2017-01-25T05:10:54.997Z,982.25
2017-01-25T05:11:25.032Z,982.26
2017-01-25T05:11:55.061Z,982.3
2017-01-25T05:12:25.093Z,982.24
2017-01-25T05:12:55.125Z,982.26
2017-01-25T05:13:25.157Z,982.25
2017-01-25T05:13:55.190Z,982.29
2017-01-25T05:14:25.221Z,982.26
2017-01-25T05:14:55.254Z,982.25
2017-01-25T05:15:25.287Z,982.24
2017-01-25T05:15:55.318Z,982.21
2017-01-25T05:16:25.350Z,982.22
2017-01-25T05:16:55.383Z,982.22
2017-01-25T05:17:25.416Z,982.23
2017-01-25T05:17:55.448Z,982.23
2017-01-25T05:18:25.479Z,982.22
2017-01-25T05:18:55.512Z,982.21
2017-01-25T05:19:25.547Z,982.21
2017-01-25T05:19:55.578Z,982.17
2017-01-25T05:20:25.614Z,982.17
2017-01-25T05:20:55.644Z,982.15
2017-01-25T05:21:25.675Z,982.13
2017-01-25T05:21:55.707Z,982.17
2017-01-25T05:22:25.740Z,982.15
2017-01-25T05:22:55.770Z,982.16
2017-01-25T05:23:25.804Z,982.11
2017-01-25T05:23:55.835Z,982.11
2017-01-25T05:24:25.868Z,982.13
2017-01-25T05:24:55.902Z,982.13
2017-01-25T05:25:25.934Z,982.12
2017-01-25T05:25:55.965Z,982.12
2017-01-25T05:26:25.996Z,982.12
2017-01-25T05:26:56.029Z,982.08
2017-01-25T05:27:26.061Z,982.08
2017-01-25T05:27:56.094Z,982.06
2017-01-25T05:28:26.126Z,982.02
2017-01-25T05:28:56.157Z,982.05
2017-01-25T05:29:26.192Z,982.06
2017-01-25T05:29:56.223Z,982.03
2017-01-25T05:30:26.254Z,982.02
2017-01-25T05:30:56.287Z,982.02
2017-01-25T05:31:26.319Z,982.03
2017-01-25T05:31:56.353Z,982.06
2017-01-25T05:32:26.383Z,982.05
2017-01-25T05:32:56.416Z,982.01
2017-01-25T05:33:26.447Z,982.05
2017-01-25T05:33:56.479Z,982.04
2017-01-25T05:34:26.544Z,982.1
2017-01-25T05:34:56.544Z,982.08
2017-01-25T05:35:26.577Z,982.06
2017-01-25T05:35:56.610Z,982.09
2017-01-25T05:36:26.640Z,982.03
2017-01-25T05:36:56.674Z,982.02
2017-01-25T05:37:26.705Z,982.03
2017-01-25T05:37:56.767Z,982
2017-01-25T05:38:26.770Z,981.98
2017-01-25T05:38:56.802Z,981.99
2017-01-25T05:39:26.835Z,981.92
2017-01-25T05:39:56.868Z,981.95
2017-01-25T05:40:26.900Z,981.96
2017-01-25T05:40:56.932Z,981.93
2017-01-25T05:41:26.963Z,981.94
2017-01-25T05:41:56.997Z,981.92
2017-01-25T05:42:27.028Z,981.91
2017-01-25T05:42:57.062Z,981.9
2017-01-25T05:43:27.094Z,981.88
2017-01-25T05:43:57.126Z,981.97
2017-01-25T05:44:27.158Z,981.96
2017-01-25T05:44:57.191Z,981.96
2017-01-25T05:45:27.223Z,981.97
2017-01-25T05:45:57.255Z,981.94
2017-01-25T05:46:27.287Z,981.94
2017-01-25T05:46:57.320Z,981.93
2017-01-25T05:47:27.352Z,981.93
2017-01-25T05:47:57.384Z,981.91
2017-01-25T05:48:27.416Z,981.96
2017-01-25T05:48:57.448Z,981.92
2017-01-25T05:49:27.481Z,981.91
2017-01-25T05:49:57.511Z,981.94
2017-01-25T05:50:27.544Z,981.93
2017-01-25T05:50:57.578Z,981.93
2017-01-25T05:51:27.610Z,981.93
2017-01-25T05:51:57.641Z,981.97
2017-01-25T05:52:27.674Z,981.94
2017-01-25T05:52:57.708Z,981.96
2017-01-25T05:53:27.739Z,981.98
2017-01-25T05:53:57.772Z,981.98
2017-01-25T05:54:27.804Z,981.97
2017-01-25T05:54:57.836Z,982.01
2017-01-25T05:55:27.869Z,982.04
2017-01-25T05:55:57.902Z,982.05
2017-01-25T05:56:27.934Z,982.07
2017-01-25T05:56:57.966Z,982.07
2017-01-25T05:57:27.998Z,982.04
2017-01-25T05:57:58.030Z,982.04
2017-01-25T05:58:28.063Z,982.05
2017-01-25T05:58:58.095Z,981.98
2017-01-25T05:59:28.128Z,982.05
2017-01-25T05:59:58.158Z,982.06
2017-01-25T06:00:28.192Z,982.07
2017-01-25T06:00:58.224Z,982.07
2017-01-25T06:01:28.256Z,982.09
2017-01-25T06:01:58.289Z,982.04
2017-01-25T06:02:28.321Z,982.06
2017-01-25T06:02:58.352Z,982.05
2017-01-25T06:03:28.385Z,982.05
2017-01-25T06:03:58.417Z,982.08
2017-01-25T06:04:28.449Z,982.07
2017-01-25T06:04:58.482Z,982.04
2017-01-25T06:05:28.514Z,982.04
2017-01-25T06:05:58.547Z,982.04
2017-01-25T06:06:28.580Z,982.05
2017-01-25T06:06:58.612Z,982.06
2017-01-25T06:07:28.646Z,982.05
2017-01-25T06:07:58.678Z,982.06
2017-01-25T06:08:28.709Z,982.07
2017-01-25T06:08:58.745Z,982.02
2017-01-25T06:09:28.776Z,982.01
2017-01-25T06:09:58.807Z,982.05
2017-01-25T06:10:28.838Z,982.04
2017-01-25T06:10:58.871Z,982.04
2017-01-25T06:11:28.903Z,982.08
2017-01-25T06:11:58.937Z,982.05
2017-01-25T06:12:28.971Z,982.07
2017-01-25T06:12:59.001Z,982.06
2017-01-25T06:13:29.033Z,982.05
2017-01-25T06:13:59.067Z,982.11
2017-01-25T06:14:29.098Z,982.05
2017-01-25T06:14:59.131Z,982.09
2017-01-25T06:15:29.163Z,982.11
2017-01-25T06:15:59.196Z,982.09
2017-01-25T06:16:29.228Z,982.09
2017-01-25T06:16:59.259Z,982.11